Time;durP1;ratioP1;P1;durP2;ratioP2;P2;SDS_P1;SDS_P2;PMS_P1;PMS_P2;Temp;Humidity;BMP_temperature;BMP_pressure;BME280_temperature;BME280_humidity;BME280_pressure;Samples;Min_cycle;Max_cycle;Signal;HPM_P1;HPM_P2
2023/12/02 00:00:22;;;;;;;19.80;9.43;;;;;;;;;;5059287;28;20390;-88
2023/12/02 00:02:47;;;;;;;18.40;9.00;;;;;;;;;;5078259;28;20028;-88
2023/12/02 00:05:13;;;;;;;20.08;9.77;;;;;;;;;;5060638;28;20020;-88
2023/12/02 00:07:38;;;;;;;15.88;8.10;;;;;;;;;;5064887;28;20020;-86
2023/12/02 00:10:04;;;;;;;17.42;8.98;;;;;;;;;;5072367;28;20033;-85
2023/12/02 00:12:29;;;;;;;17.42;9.00;;;;;;;;;;5064562;28;20040;-85
2023/12/02 00:14:55;;;;;;;17.45;8.50;;;;;;;;;;5070061;28;20081;-85
2023/12/02 00:17:20;;;;;;;18.63;9.25;;;;;;;;;;5072047;28;20096;-86
2023/12/02 00:19:46;;;;;;;19.38;8.80;;;;;;;;;;5064870;28;20032;-86
2023/12/02 00:22:13;;;;;;;18.52;9.05;;;;;;;;;;5060861;28;20490;-85
2023/12/02 00:24:38;;;;;;;15.82;7.78;;;;;;;;;;5070736;28;20044;-86
2023/12/02 00:27:04;;;;;;;16.92;8.45;;;;;;;;;;5062956;28;20027;-85
2023/12/02 00:29:30;;;;;;;18.33;8.45;;;;;;;;;;5080587;28;20437;-85
2023/12/02 00:31:55;;;;;;;21.10;9.05;;;;;;;;;;5071618;28;20028;-86
2023/12/02 00:34:21;;;;;;;17.98;9.30;;;;;;;;;;5062427;28;20372;-85
2023/12/02 00:36:46;;;;;;;19.10;9.07;;;;;;;;;;5071974;28;20024;-86
2023/12/02 00:39:12;;;;;;;18.45;8.88;;;;;;;;;;5062140;28;20051;-86
2023/12/02 00:41:38;;;;;;;20.00;9.35;;;;;;;;;;5070541;28;20028;-85
2023/12/02 00:44:04;;;;;;;17.77;8.63;;;;;;;;;;5070178;28;20028;-85
2023/12/02 00:46:29;;;;;;;17.80;9.23;;;;;;;;;;5065200;28;20035;-86
2023/12/02 00:48:54;;;;;;;18.50;9.20;;;;;;;;;;5066993;28;20040;-87
2023/12/02 00:51:20;;;;;;;19.10;9.20;;;;;;;;;;5064689;28;20035;-87
2023/12/02 00:53:45;;;;;;;19.08;8.90;;;;;;;;;;5068772;28;20247;-87
2023/12/02 00:56:11;;;;;;;19.08;9.63;;;;;;;;;;5070010;28;20031;-86
2023/12/02 00:58:36;;;;;;;19.80;9.27;;;;;;;;;;5065048;28;20449;-86
2023/12/02 01:01:01;;;;;;;19.95;9.60;;;;;;;;;;5083650;28;20017;-87
2023/12/02 01:03:27;;;;;;;17.20;8.40;;;;;;;;;;5065853;28;20039;-87
2023/12/02 01:05:52;;;;;;;20.30;8.95;;;;;;;;;;5061625;28;20032;-86
2023/12/02 01:08:18;;;;;;;18.10;9.80;;;;;;;;;;5058943;28;20056;-87
2023/12/02 01:10:43;;;;;;;17.98;9.23;;;;;;;;;;5066342;28;20036;-87
2023/12/02 01:13:08;;;;;;;19.58;9.80;;;;;;;;;;5064151;28;20040;-86
2023/12/02 01:15:34;;;;;;;18.88;9.48;;;;;;;;;;5077852;28;20035;-87
2023/12/02 01:17:59;;;;;;;19.23;9.05;;;;;;;;;;5073910;28;20025;-87
2023/12/02 01:20:25;;;;;;;18.05;8.80;;;;;;;;;;5073832;28;20048;-87
2023/12/02 01:22:50;;;;;;;17.35;8.80;;;;;;;;;;5075443;28;20048;-87
2023/12/02 01:25:15;;;;;;;19.52;9.93;;;;;;;;;;5092635;28;20440;-87
2023/12/02 01:27:41;;;;;;;21.90;9.60;;;;;;;;;;5070969;28;20034;-87
2023/12/02 01:30:06;;;;;;;19.45;9.32;;;;;;;;;;5077500;28;20039;-86
2023/12/02 01:32:32;;;;;;;20.65;10.15;;;;;;;;;;5071516;28;20039;-87
2023/12/02 01:34:57;;;;;;;21.45;10.30;;;;;;;;;;5074185;28;20028;-87
2023/12/02 01:37:23;;;;;;;20.48;9.90;;;;;;;;;;5064383;28;20028;-87
2023/12/02 01:39:48;;;;;;;20.55;9.57;;;;;;;;;;5072234;28;20072;-87
2023/12/02 01:42:14;;;;;;;21.08;9.73;;;;;;;;;;5069310;28;20028;-87
2023/12/02 01:44:39;;;;;;;21.08;9.77;;;;;;;;;;5070409;28;20362;-87
2023/12/02 01:47:05;;;;;;;24.38;10.90;;;;;;;;;;5077176;28;20020;-87
2023/12/02 01:49:32;;;;;;;21.92;10.45;;;;;;;;;;5068922;28;20021;-87
2023/12/02 01:51:58;;;;;;;20.63;9.88;;;;;;;;;;5069923;28;20024;-87
2023/12/02 01:54:23;;;;;;;23.08;10.23;;;;;;;;;;5069695;28;20544;-87
2023/12/02 01:56:49;;;;;;;24.83;10.48;;;;;;;;;;5071407;28;20082;-87
2023/12/02 01:59:15;;;;;;;20.80;10.05;;;;;;;;;;5074709;28;20111;-87
2023/12/02 02:01:40;;;;;;;19.90;9.38;;;;;;;;;;5075506;28;20058;-86
2023/12/02 02:04:05;;;;;;;22.17;10.23;;;;;;;;;;5073745;28;20550;-87
2023/12/02 02:06:32;;;;;;;20.55;10.75;;;;;;;;;;5068144;28;20021;-87
2023/12/02 02:08:57;;;;;;;21.88;10.30;;;;;;;;;;5069285;28;20501;-87
2023/12/02 02:11:23;;;;;;;21.35;10.40;;;;;;;;;;5074224;28;20036;-87
2023/12/02 02:13:49;;;;;;;24.67;9.98;;;;;;;;;;5067018;28;20096;-87
2023/12/02 02:16:14;;;;;;;21.40;9.50;;;;;;;;;;5074237;28;20031;-87
2023/12/02 02:18:40;;;;;;;23.67;10.13;;;;;;;;;;5069197;28;20445;-87
2023/12/02 02:21:05;;;;;;;22.35;10.38;;;;;;;;;;5069402;28;20180;-87
2023/12/02 02:23:31;;;;;;;21.83;10.77;;;;;;;;;;5073805;28;20025;-87
2023/12/02 02:25:56;;;;;;;23.65;10.80;;;;;;;;;;5065055;28;20411;-87
2023/12/02 02:28:24;;;;;;;20.20;9.88;;;;;;;;;;5067395;28;20372;-87
2023/12/02 02:30:50;;;;;;;20.23;9.63;;;;;;;;;;5064195;28;20044;-87
2023/12/02 02:33:16;;;;;;;22.00;10.23;;;;;;;;;;5071134;28;20497;-87
2023/12/02 02:35:43;;;;;;;21.17;10.35;;;;;;;;;;5071068;28;20024;-87
2023/12/02 02:38:09;;;;;;;21.67;10.27;;;;;;;;;;5066480;28;20024;-87
2023/12/02 02:40:35;;;;;;;23.60;11.48;;;;;;;;;;5066648;28;20490;-87
2023/12/02 02:43:00;;;;;;;22.15;10.18;;;;;;;;;;5072155;28;20091;-87
2023/12/02 02:45:26;;;;;;;21.63;10.70;;;;;;;;;;5072649;28;20117;-87
2023/12/02 02:47:52;;;;;;;22.10;10.70;;;;;;;;;;5073037;28;20478;-87
2023/12/02 02:50:18;;;;;;;20.42;9.73;;;;;;;;;;5064665;28;20029;-87
2023/12/02 02:52:44;;;;;;;21.25;10.02;;;;;;;;;;5066066;28;20127;-87
2023/12/02 02:55:09;;;;;;;23.20;10.98;;;;;;;;;;5068432;28;20024;-87
2023/12/02 02:57:35;;;;;;;23.17;10.55;;;;;;;;;;5067813;28;20074;-87
2023/12/02 03:00:00;;;;;;;19.40;9.60;;;;;;;;;;5068886;28;20082;-87
2023/12/02 03:02:26;;;;;;;24.25;11.02;;;;;;;;;;5070014;28;20039;-87
2023/12/02 03:04:51;;;;;;;22.83;10.48;;;;;;;;;;5073851;28;20478;-87
2023/12/02 03:07:17;;;;;;;22.00;10.48;;;;;;;;;;5070832;28;20108;-87
2023/12/02 03:09:42;;;;;;;22.83;10.52;;;;;;;;;;5065471;28;20028;-87
2023/12/02 03:12:09;;;;;;;21.88;10.20;;;;;;;;;;5062985;28;20028;-87
2023/12/02 03:14:37;;;;;;;23.10;10.88;;;;;;;;;;5066751;28;20021;-86
2023/12/02 03:17:02;;;;;;;22.25;10.18;;;;;;;;;;5064198;28;20478;-88
2023/12/02 03:19:28;;;;;;;21.40;10.02;;;;;;;;;;5069852;28;20036;-87
2023/12/02 03:21:53;;;;;;;23.45;11.27;;;;;;;;;;5068988;28;20367;-87
2023/12/02 03:24:18;;;;;;;24.20;11.10;;;;;;;;;;5071149;28;20433;-87
2023/12/02 03:26:44;;;;;;;22.70;10.80;;;;;;;;;;5065392;28;20044;-87
2023/12/02 03:29:09;;;;;;;19.67;9.85;;;;;;;;;;5075273;28;20029;-87
2023/12/02 03:31:35;;;;;;;23.95;10.57;;;;;;;;;;5064874;28;20032;-87
2023/12/02 03:34:00;;;;;;;22.73;10.38;;;;;;;;;;5072081;28;20378;-87
2023/12/02 03:36:25;;;;;;;20.42;9.93;;;;;;;;;;5067845;28;20284;-87
2023/12/02 03:38:51;;;;;;;22.40;10.88;;;;;;;;;;5069839;28;20035;-87
2023/12/02 03:41:16;;;;;;;21.35;10.00;;;;;;;;;;5068016;28;20070;-87
2023/12/02 03:43:42;;;;;;;22.40;9.68;;;;;;;;;;5066963;28;20020;-87
2023/12/02 03:46:07;;;;;;;21.67;10.65;;;;;;;;;;5071156;28;20471;-87
2023/12/02 03:48:33;;;;;;;23.13;9.88;;;;;;;;;;5068757;28;20534;-87
2023/12/02 03:50:58;;;;;;;22.25;10.50;;;;;;;;;;5053864;28;20031;-87
2023/12/02 03:53:24;;;;;;;20.88;10.63;;;;;;;;;;5070904;28;20024;-86
2023/12/02 03:55:51;;;;;;;21.80;10.05;;;;;;;;;;5066656;28;20041;-87
2023/12/02 03:58:17;;;;;;;25.38;10.52;;;;;;;;;;5069149;28;20522;-87
2023/12/02 04:00:43;;;;;;;22.88;10.02;;;;;;;;;;5067304;28;20016;-87
2023/12/02 04:03:08;;;;;;;22.30;10.35;;;;;;;;;;5068004;28;20094;-86
2023/12/02 04:05:34;;;;;;;23.40;10.73;;;;;;;;;;5064865;28;20383;-87
2023/12/02 04:07:59;;;;;;;23.65;10.80;;;;;;;;;;5066085;28;20506;-86
2023/12/02 04:10:25;;;;;;;23.83;10.80;;;;;;;;;;5065419;28;20025;-86
2023/12/02 04:12:50;;;;;;;20.75;9.55;;;;;;;;;;5062707;28;20558;-87
2023/12/02 04:15:15;;;;;;;23.63;10.55;;;;;;;;;;5069614;28;20030;-86
2023/12/02 04:17:41;;;;;;;22.60;10.52;;;;;;;;;;5063307;28;20024;-86
2023/12/02 04:20:08;;;;;;;21.23;10.43;;;;;;;;;;5061124;28;20048;-86
2023/12/02 04:22:38;;;;;;;22.13;10.02;;;;;;;;;;5065538;28;20047;-86
2023/12/02 04:25:04;;;;;;;23.30;10.30;;;;;;;;;;5064021;28;20067;-87
2023/12/02 04:27:30;;;;;;;24.17;11.20;;;;;;;;;;5063009;28;20477;-87
2023/12/02 04:29:57;;;;;;;21.23;9.50;;;;;;;;;;5066395;28;20033;-87
2023/12/02 04:32:22;;;;;;;20.77;9.98;;;;;;;;;;5062538;28;20094;-87
2023/12/02 04:34:48;;;;;;;22.33;10.45;;;;;;;;;;5067985;28;20437;-87
2023/12/02 04:37:14;;;;;;;22.35;10.20;;;;;;;;;;5066613;28;20395;-87
2023/12/02 04:39:40;;;;;;;21.35;10.50;;;;;;;;;;5066297;28;20405;-87
2023/12/02 04:42:05;;;;;;;18.73;9.50;;;;;;;;;;5069400;28;20027;-87
2023/12/02 04:44:31;;;;;;;20.55;10.45;;;;;;;;;;5071619;28;20447;-87
2023/12/02 04:46:56;;;;;;;20.08;9.57;;;;;;;;;;5063078;28;20055;-87
2023/12/02 04:49:22;;;;;;;20.13;9.80;;;;;;;;;;5064964;28;20052;-87
2023/12/02 04:51:47;;;;;;;21.35;10.00;;;;;;;;;;5068406;28;20029;-87
2023/12/02 04:54:13;;;;;;;21.30;10.00;;;;;;;;;;5067388;28;20123;-87
2023/12/02 04:56:38;;;;;;;23.42;10.15;;;;;;;;;;5072086;28;20367;-87
2023/12/02 04:59:04;;;;;;;20.95;10.30;;;;;;;;;;5070629;28;20405;-87
2023/12/02 05:01:29;;;;;;;23.77;11.10;;;;;;;;;;5067824;28;20389;-87
2023/12/02 05:03:54;;;;;;;24.45;10.85;;;;;;;;;;5065512;28;20040;-87
2023/12/02 05:06:20;;;;;;;23.70;10.43;;;;;;;;;;5063728;28;20043;-87
2023/12/02 05:08:45;;;;;;;22.90;10.07;;;;;;;;;;5066002;28;20039;-86
2023/12/02 05:11:20;;;;;;;19.13;9.10;;;;;;;;;;5067994;28;20033;-86
2023/12/02 05:13:46;;;;;;;17.98;9.07;;;;;;;;;;5065591;28;20523;-87
2023/12/02 05:16:12;;;;;;;19.85;9.50;;;;;;;;;;5068273;28;20016;-87
2023/12/02 05:18:40;;;;;;;19.20;9.70;;;;;;;;;;5066716;28;20120;-87
2023/12/02 05:21:06;;;;;;;19.60;9.50;;;;;;;;;;5066226;28;20101;-86
2023/12/02 05:23:31;;;;;;;17.52;8.73;;;;;;;;;;5065494;28;20060;-87
2023/12/02 05:25:57;;;;;;;22.20;11.05;;;;;;;;;;5062070;28;20029;-86
2023/12/02 05:28:22;;;;;;;19.08;8.77;;;;;;;;;;5070411;28;20363;-86
2023/12/02 05:30:48;;;;;;;20.42;9.07;;;;;;;;;;5069434;28;20033;-86
2023/12/02 05:33:14;;;;;;;18.70;9.63;;;;;;;;;;5067033;28;20458;-86
2023/12/02 05:35:40;;;;;;;19.30;9.50;;;;;;;;;;5062550;28;20024;-86
2023/12/02 05:38:05;;;;;;;19.05;9.50;;;;;;;;;;5065761;28;20536;-87
2023/12/02 05:40:31;;;;;;;19.45;9.80;;;;;;;;;;5066998;28;20031;-86
2023/12/02 05:42:56;;;;;;;17.05;8.35;;;;;;;;;;5069235;28;20028;-87
2023/12/02 05:45:22;;;;;;;18.42;9.68;;;;;;;;;;5068951;28;20029;-87
2023/12/02 05:47:47;;;;;;;21.30;9.73;;;;;;;;;;5068127;28;20035;-86
2023/12/02 05:50:12;;;;;;;20.77;9.15;;;;;;;;;;5066912;28;20044;-86
2023/12/02 05:52:39;;;;;;;18.27;8.95;;;;;;;;;;5060683;28;20127;-86
2023/12/02 05:55:05;;;;;;;20.35;10.13;;;;;;;;;;5062806;28;20036;-86
2023/12/02 05:57:31;;;;;;;19.85;9.80;;;;;;;;;;5063164;28;20035;-86
2023/12/02 05:59:56;;;;;;;19.08;9.65;;;;;;;;;;5058990;28;20028;-86
2023/12/02 06:02:22;;;;;;;19.50;9.65;;;;;;;;;;5066183;28;20028;-86
2023/12/02 06:04:47;;;;;;;19.55;9.85;;;;;;;;;;5072312;28;20028;-86
2023/12/02 06:07:12;;;;;;;22.10;10.70;;;;;;;;;;5066384;28;20067;-86
2023/12/02 06:09:41;;;;;;;19.48;9.90;;;;;;;;;;5073710;28;20111;-86
2023/12/02 06:12:07;;;;;;;20.17;9.90;;;;;;;;;;5067821;28;20037;-86
2023/12/02 06:14:33;;;;;;;18.65;9.00;;;;;;;;;;5067721;28;20029;-86
2023/12/02 06:16:58;;;;;;;18.63;9.63;;;;;;;;;;5072469;28;20036;-86
2023/12/02 06:19:23;;;;;;;19.63;9.90;;;;;;;;;;5068320;28;20112;-86
2023/12/02 06:21:49;;;;;;;20.02;9.35;;;;;;;;;;5067855;28;20115;-86
2023/12/02 06:24:14;;;;;;;21.20;10.35;;;;;;;;;;5069964;28;20394;-86
2023/12/02 06:26:40;;;;;;;18.80;9.60;;;;;;;;;;5068556;28;20549;-86
2023/12/02 06:29:06;;;;;;;17.33;8.90;;;;;;;;;;5066874;28;20078;-86
2023/12/02 06:31:33;;;;;;;18.55;9.60;;;;;;;;;;5066311;28;20055;-85
2023/12/02 06:33:58;;;;;;;19.92;9.88;;;;;;;;;;5069015;28;20123;-85
2023/12/02 06:36:23;;;;;;;20.52;9.50;;;;;;;;;;5068012;28;20104;-86
2023/12/02 06:38:49;;;;;;;24.05;10.10;;;;;;;;;;5065951;28;20032;-86
2023/12/02 06:41:15;;;;;;;19.88;9.25;;;;;;;;;;5070238;28;20545;-86
2023/12/02 06:43:40;;;;;;;19.92;10.30;;;;;;;;;;5073105;28;20103;-86
2023/12/02 06:46:06;;;;;;;18.50;9.10;;;;;;;;;;5061077;28;20473;-86
2023/12/02 06:48:31;;;;;;;18.45;9.00;;;;;;;;;;5064681;28;20025;-86
2023/12/02 06:50:57;;;;;;;21.55;9.77;;;;;;;;;;5067316;28;20428;-87
2023/12/02 06:53:22;;;;;;;21.15;9.68;;;;;;;;;;5072498;28;20459;-86
2023/12/02 06:55:48;;;;;;;16.67;8.48;;;;;;;;;;5069198;28;20029;-87
2023/12/02 06:58:15;;;;;;;18.85;9.30;;;;;;;;;;5072161;28;20089;-86
2023/12/02 07:00:40;;;;;;;18.48;9.50;;;;;;;;;;5065930;28;20028;-87
2023/12/02 07:03:08;;;;;;;21.20;10.48;;;;;;;;;;5065853;28;20052;-86
2023/12/02 07:05:34;;;;;;;19.70;9.73;;;;;;;;;;5071549;28;20051;-87
2023/12/02 07:07:59;;;;;;;17.60;9.35;;;;;;;;;;5069943;28;20056;-86
2023/12/02 07:10:25;;;;;;;19.25;9.60;;;;;;;;;;5074558;28;20031;-87
2023/12/02 07:12:50;;;;;;;19.50;10.07;;;;;;;;;;5065445;28;20083;-86
2023/12/02 07:15:15;;;;;;;18.50;10.05;;;;;;;;;;5066413;28;20137;-86
2023/12/02 07:17:41;;;;;;;20.23;9.90;;;;;;;;;;5070062;28;20402;-86
2023/12/02 07:20:07;;;;;;;19.48;10.13;;;;;;;;;;5066756;28;20063;-86
2023/12/02 07:22:32;;;;;;;19.70;9.82;;;;;;;;;;5066324;28;20060;-86
2023/12/02 07:24:58;;;;;;;18.45;9.55;;;;;;;;;;5072712;28;20043;-86
2023/12/02 07:27:23;;;;;;;20.15;9.90;;;;;;;;;;5067590;28;20025;-86
2023/12/02 07:29:49;;;;;;;18.45;9.13;;;;;;;;;;5068495;28;20492;-87
2023/12/02 07:32:14;;;;;;;22.20;10.38;;;;;;;;;;5081824;28;20384;-87
2023/12/02 07:34:40;;;;;;;20.83;10.20;;;;;;;;;;5069691;28;20036;-86
2023/12/02 07:37:05;;;;;;;19.05;9.63;;;;;;;;;;5085344;28;20025;-87
2023/12/02 07:39:30;;;;;;;18.50;9.00;;;;;;;;;;5063080;28;20021;-86
2023/12/02 07:41:56;;;;;;;21.38;9.98;;;;;;;;;;5067849;28;20020;-87
2023/12/02 07:44:21;;;;;;;21.08;10.80;;;;;;;;;;5068264;28;20362;-87
2023/12/02 07:46:47;;;;;;;19.65;9.60;;;;;;;;;;5072259;28;20107;-87
2023/12/02 07:49:12;;;;;;;20.20;9.85;;;;;;;;;;5073485;28;20103;-87
2023/12/02 07:51:37;;;;;;;17.92;9.23;;;;;;;;;;5069093;28;20032;-87
2023/12/02 07:54:03;;;;;;;20.95;10.55;;;;;;;;;;5066021;28;20031;-86
2023/12/02 07:56:29;;;;;;;19.52;10.18;;;;;;;;;;5062672;28;20422;-86
2023/12/02 07:58:55;;;;;;;23.65;11.05;;;;;;;;;;5069321;28;20359;-86
2023/12/02 08:01:23;;;;;;;27.00;12.50;;;;;;;;;;5064822;28;20033;-86
2023/12/02 08:03:48;;;;;;;28.40;12.95;;;;;;;;;;5066548;28;20028;-86
2023/12/02 08:06:14;;;;;;;24.38;11.98;;;;;;;;;;5065864;28;20031;-86
2023/12/02 08:08:45;;;;;;;26.25;12.10;;;;;;;;;;5067197;28;20394;-87
2023/12/02 08:11:11;;;;;;;21.88;10.73;;;;;;;;;;5069520;28;20481;-87
2023/12/02 08:13:36;;;;;;;22.10;10.30;;;;;;;;;;5071161;28;20100;-86
2023/12/02 08:16:02;;;;;;;24.58;11.68;;;;;;;;;;5062792;28;20383;-86
2023/12/02 08:18:27;;;;;;;23.27;10.60;;;;;;;;;;5063502;28;20467;-85
2023/12/02 08:20:52;;;;;;;22.25;10.68;;;;;;;;;;5069378;28;20031;-85
2023/12/02 08:23:18;;;;;;;21.17;9.05;;;;;;;;;;5062275;28;20020;-84
2023/12/02 08:25:43;;;;;;;22.67;10.82;;;;;;;;;;5068977;28;20403;-85
2023/12/02 08:28:09;;;;;;;21.33;9.65;;;;;;;;;;5064025;28;20031;-85
2023/12/02 08:30:34;;;;;;;21.88;10.05;;;;;;;;;;5068240;28;20140;-84
2023/12/02 08:32:59;;;;;;;25.63;11.60;;;;;;;;;;5065477;28;20029;-85
2023/12/02 08:35:25;;;;;;;29.45;12.65;;;;;;;;;;5068315;28;20020;-85
2023/12/02 08:37:51;;;;;;;25.88;12.07;;;;;;;;;;5067686;28;20496;-85
2023/12/02 08:40:16;;;;;;;23.67;11.63;;;;;;;;;;5067608;28;20020;-85
2023/12/02 08:42:42;;;;;;;23.02;11.02;;;;;;;;;;5066947;28;20055;-85
2023/12/02 08:45:10;;;;;;;22.52;10.23;;;;;;;;;;5072103;28;20028;-85
2023/12/02 08:47:59;;;;;;;25.33;12.45;;;;;;;;;;5066854;28;20024;-85
2023/12/02 08:50:24;;;;;;;23.75;11.18;;;;;;;;;;5067314;28;20041;-87
2023/12/02 08:52:50;;;;;;;24.27;11.40;;;;;;;;;;5065734;28;20031;-86
2023/12/02 08:55:16;;;;;;;22.10;10.60;;;;;;;;;;5061794;28;20029;-87
2023/12/02 08:57:42;;;;;;;23.30;11.65;;;;;;;;;;5067600;28;20115;-86
2023/12/02 09:00:08;;;;;;;24.63;11.00;;;;;;;;;;5081977;28;20055;-85
2023/12/02 09:02:34;;;;;;;21.05;10.73;;;;;;;;;;5096828;28;20067;-86
2023/12/02 09:05:02;;;;;;;22.73;10.60;;;;;;;;;;5066957;28;20024;-86
2023/12/02 09:07:27;;;;;;;22.52;10.88;;;;;;;;;;5064334;28;20032;-87
2023/12/02 09:09:53;;;;;;;24.38;11.07;;;;;;;;;;5066176;28;20020;-86
2023/12/02 09:12:18;;;;;;;24.27;11.95;;;;;;;;;;5062241;28;20047;-86
2023/12/02 09:14:44;;;;;;;26.90;11.40;;;;;;;;;;5063339;28;20027;-86
2023/12/02 09:17:46;;;;;;;25.10;11.77;;;;;;;;;;5063036;28;20116;-86
2023/12/02 09:20:38;;;;;;;24.23;11.48;;;;;;;;;;5048988;28;20029;-85
2023/12/02 09:23:06;;;;;;;23.88;11.77;;;;;;;;;;5065683;28;20180;-85
2023/12/02 09:25:36;;;;;;;24.48;11.77;;;;;;;;;;5062404;28;20029;-85
2023/12/02 09:28:05;;;;;;;24.85;11.75;;;;;;;;;;5059440;28;20040;-87
2023/12/02 09:30:31;;;;;;;28.05;12.38;;;;;;;;;;5059519;28;20063;-86
2023/12/02 09:32:57;;;;;;;25.45;12.23;;;;;;;;;;5061661;28;20032;-85
2023/12/02 09:35:22;;;;;;;27.80;11.95;;;;;;;;;;5063161;28;20086;-85
2023/12/02 09:37:55;;;;;;;26.23;11.93;;;;;;;;;;5063359;28;20425;-83
2023/12/02 09:40:20;;;;;;;25.60;11.93;;;;;;;;;;5066842;28;20047;-85
2023/12/02 09:42:54;;;;;;;26.92;12.02;;;;;;;;;;5066539;28;20116;-86
2023/12/02 09:45:32;;;;;;;28.33;11.77;;;;;;;;;;5064965;28;20390;-85
2023/12/02 09:48:05;;;;;;;25.27;12.05;;;;;;;;;;5075271;28;20032;-86
2023/12/02 09:50:33;;;;;;;;;;;;;;;;;;5069305;28;20033;-85
2023/12/02 09:53:24;;;;;;;23.05;10.68;;;;;;;;;;5094330;28;19999;-85
2023/12/02 09:55:55;;;;;;;23.20;11.65;;;;;;;;;;5065023;28;20390;-84
2023/12/02 09:58:29;;;;;;;24.02;10.90;;;;;;;;;;5066504;28;20033;-84
2023/12/02 10:01:09;;;;;;;29.00;13.07;;;;;;;;;;5068006;28;20028;-84
2023/12/02 10:04:06;;;;;;;27.65;12.55;;;;;;;;;;5059268;28;20054;-84
2023/12/02 10:06:50;;;;;;;25.73;11.20;;;;;;;;;;5055474;28;20428;-84
2023/12/02 10:09:32;;;;;;;24.10;12.05;;;;;;;;;;5053470;28;20119;-84
2023/12/02 10:12:24;;;;;;;28.15;11.88;;;;;;;;;;5055380;28;20409;-85
2023/12/02 10:14:58;;;;;;;25.48;11.75;;;;;;;;;;5058509;28;20038;-84
2023/12/02 10:17:26;;;;;;;28.75;12.45;;;;;;;;;;5071640;28;20039;-81
2023/12/02 10:19:55;;;;;;;29.85;13.38;;;;;;;;;;5054492;28;20029;-81
2023/12/02 10:22:24;;;;;;;28.17;12.38;;;;;;;;;;5051763;28;20451;-81
2023/12/02 10:25:08;;;;;;;27.73;13.00;;;;;;;;;;5053116;28;20093;-81
2023/12/02 10:27:38;;;;;;;24.80;11.27;;;;;;;;;;5055794;28;20043;-81
2023/12/02 10:30:22;;;;;;;26.83;12.88;;;;;;;;;;5053256;28;20735;-81
2023/12/02 10:33:02;;;;;;;27.13;11.63;;;;;;;;;;5056535;28;20048;-80
2023/12/02 10:35:37;;;;;;;30.50;12.32;;;;;;;;;;5054930;28;20040;-80
2023/12/02 10:38:08;;;;;;;25.02;11.80;;;;;;;;;;5050995;28;20133;-80
2023/12/02 10:40:34;;;;;;;26.13;12.00;;;;;;;;;;5050987;28;20713;-81
2023/12/02 10:43:07;;;;;;;26.92;12.02;;;;;;;;;;5052076;28;20432;-80
2023/12/02 10:45:36;;;;;;;23.55;11.48;;;;;;;;;;5050492;28;20394;-80
2023/12/02 10:48:02;;;;;;;24.98;12.10;;;;;;;;;;5049682;28;20059;-80
2023/12/02 10:50:28;;;;;;;26.13;12.05;;;;;;;;;;5056637;28;20124;-79
2023/12/02 10:53:01;;;;;;;25.10;11.75;;;;;;;;;;5072967;28;20032;-80
2023/12/02 10:55:29;;;;;;;;;;;;;;;;;;5054740;28;20040;-80
2023/12/02 10:57:59;;;;;;;22.77;9.68;;;;;;;;;;5031541;28;19916;-80
2023/12/02 11:00:29;;;;;;;24.52;11.30;;;;;;;;;;5052175;28;20438;-80
2023/12/02 11:03:02;;;;;;;25.15;10.48;;;;;;;;;;5048494;28;20052;-80
2023/12/02 11:05:43;;;;;;;23.27;10.65;;;;;;;;;;5049291;28;20064;-80
2023/12/02 11:08:17;;;;;;;28.92;12.40;;;;;;;;;;5048746;28;20489;-80
2023/12/02 11:10:47;;;;;;;23.73;10.68;;;;;;;;;;5049472;28;20020;-80
2023/12/02 11:13:20;;;;;;;27.17;11.68;;;;;;;;;;5052766;28;20024;-80
2023/12/02 11:15:56;;;;;;;;;;;;;;;;;;5054357;28;20107;-80
2023/12/02 11:18:41;;;;;;;27.33;11.68;;;;;;;;;;5049388;28;19924;-80
2023/12/02 11:21:17;;;;;;;27.42;11.10;;;;;;;;;;5037135;28;20082;-81
2023/12/02 11:24:03;;;;;;;33.78;13.80;;;;;;;;;;5053596;28;20130;-80
2023/12/02 11:26:39;;;;;;;33.20;13.23;;;;;;;;;;5052561;28;20111;-80
2023/12/02 11:29:20;;;;;;;33.92;13.35;;;;;;;;;;5054869;28;20061;-83
2023/12/02 11:32:06;;;;;;;30.63;12.07;;;;;;;;;;5054647;28;20067;-83
2023/12/02 11:34:53;;;;;;;28.33;12.93;;;;;;;;;;5041510;28;20040;-83
2023/12/02 11:37:22;;;;;;;26.63;11.65;;;;;;;;;;5051456;28;20052;-84
2023/12/02 11:40:12;;;;;;;33.67;13.27;;;;;;;;;;5055270;28;20035;-83
2023/12/02 11:42:57;;;;;;;30.00;13.32;;;;;;;;;;5056110;28;20024;-84
2023/12/02 11:45:32;;;;;;;34.83;13.18;;;;;;;;;;5034696;28;20040;-84
2023/12/02 11:48:20;;;;;;;30.40;12.23;;;;;;;;;;5055315;28;20083;-80
2023/12/02 11:51:04;;;;;;;31.40;13.68;;;;;;;;;;5055491;28;20054;-81
2023/12/02 11:53:36;;;;;;;31.90;13.15;;;;;;;;;;5070254;28;20046;-80
2023/12/02 11:56:17;;;;;;;30.33;12.25;;;;;;;;;;5048605;28;20038;-80
2023/12/02 11:58:46;;;;;;;28.70;12.27;;;;;;;;;;5049894;28;20140;-80
2023/12/02 12:01:33;;;;;;;32.35;13.10;;;;;;;;;;5045263;28;20232;-80
2023/12/02 12:04:36;;;;;;;33.53;12.93;;;;;;;;;;5053532;28;20486;-80
2023/12/02 12:07:24;;;;;;;24.40;10.50;;;;;;;;;;5049185;28;20222;-80
2023/12/02 12:09:58;;;;;;;26.77;11.63;;;;;;;;;;5053573;28;20036;-81
2023/12/02 12:12:26;;;;;;;28.30;12.55;;;;;;;;;;5050387;28;20139;-80
2023/12/02 12:14:54;;;;;;;26.90;11.98;;;;;;;;;;5053067;28;20485;-80
2023/12/02 12:17:20;;;;;;;28.38;12.45;;;;;;;;;;5046583;28;20262;-80
2023/12/02 12:19:49;;;;;;;29.67;11.93;;;;;;;;;;5046799;28;20502;-80
2023/12/02 12:22:15;;;;;;;28.58;12.68;;;;;;;;;;5051118;28;20033;-80
2023/12/02 12:24:40;;;;;;;32.53;12.52;;;;;;;;;;5048341;28;20566;-80
2023/12/02 12:27:06;;;;;;;32.03;14.27;;;;;;;;;;5054868;28;20039;-80
2023/12/02 12:29:31;;;;;;;28.52;12.70;;;;;;;;;;5051127;28;20029;-80
2023/12/02 12:31:59;;;;;;;29.40;12.32;;;;;;;;;;5049056;28;20037;-80
2023/12/02 12:34:26;;;;;;;28.10;12.65;;;;;;;;;;5052220;28;20560;-79
2023/12/02 12:36:52;;;;;;;30.27;13.18;;;;;;;;;;5051896;28;20481;-79
2023/12/02 12:39:20;;;;;;;31.08;13.27;;;;;;;;;;5047157;28;20077;-79
2023/12/02 12:41:47;;;;;;;26.73;12.73;;;;;;;;;;5039035;28;20059;-79
2023/12/02 12:44:14;;;;;;;32.97;12.60;;;;;;;;;;5044463;28;20056;-79
2023/12/02 12:46:42;;;;;;;31.40;13.88;;;;;;;;;;5050594;28;20034;-80
2023/12/02 12:49:07;;;;;;;29.58;13.15;;;;;;;;;;5048589;28;20283;-80
2023/12/02 12:51:35;;;;;;;38.00;14.18;;;;;;;;;;5049121;28;20028;-80
2023/12/02 12:54:05;;;;;;;31.25;13.77;;;;;;;;;;5067322;28;20295;-80
2023/12/02 12:56:40;;;;;;;29.23;13.40;;;;;;;;;;5052397;28;20031;-80
2023/12/02 12:59:13;;;;;;;30.58;13.23;;;;;;;;;;5069891;28;20032;-85
2023/12/02 13:01:59;;;;;;;37.08;14.98;;;;;;;;;;5065451;28;20112;-85
2023/12/02 13:04:49;;;;;;;31.45;13.95;;;;;;;;;;5079909;28;20136;-85
2023/12/02 13:07:15;;;;;;;31.30;14.23;;;;;;;;;;5047834;28;20028;-85
2023/12/02 13:09:49;;;;;;;29.25;13.77;;;;;;;;;;5053465;28;20586;-85
2023/12/02 13:12:22;;;;;;;26.85;12.65;;;;;;;;;;5048040;28;20127;-85
2023/12/02 13:14:50;;;;;;;30.48;13.65;;;;;;;;;;5048993;28;20028;-85
2023/12/02 13:17:17;;;;;;;33.42;12.70;;;;;;;;;;5054539;28;20052;-84
2023/12/02 13:19:44;;;;;;;30.02;13.18;;;;;;;;;;5061016;28;20078;-85
2023/12/02 13:22:11;;;;;;;26.05;12.55;;;;;;;;;;5047028;28;20032;-85
2023/12/02 13:24:40;;;;;;;29.02;12.82;;;;;;;;;;5049607;28;20387;-85
2023/12/02 13:27:38;;;;;;;33.10;14.98;;;;;;;;;;5051268;28;20145;-85
2023/12/02 13:30:06;;;;;;;30.60;13.43;;;;;;;;;;5041244;28;20032;-85
2023/12/02 13:32:35;;;;;;;27.40;12.35;;;;;;;;;;5059460;28;20040;-86
2023/12/02 13:35:04;;;;;;;32.78;14.35;;;;;;;;;;5062401;28;20040;-86
2023/12/02 13:37:41;;;;;;;30.48;13.13;;;;;;;;;;5061183;28;20077;-85
2023/12/02 13:40:08;;;;;;;27.75;12.82;;;;;;;;;;5056262;28;20037;-86
2023/12/02 13:42:40;;;;;;;28.60;13.23;;;;;;;;;;5062896;28;20039;-84
2023/12/02 13:45:09;;;;;;;30.52;13.27;;;;;;;;;;5061718;28;20505;-83
2023/12/02 13:47:46;;;;;;;28.27;12.95;;;;;;;;;;5060399;28;20085;-84
2023/12/02 13:50:17;;;;;;;27.80;13.18;;;;;;;;;;5064298;28;20056;-83
2023/12/02 13:53:04;;;;;;;30.13;13.05;;;;;;;;;;5065520;28;20029;-83
2023/12/02 13:56:03;;;;;;;30.85;12.77;;;;;;;;;;5061540;28;20052;-84
2023/12/02 13:58:39;;;;;;;27.85;13.05;;;;;;;;;;5095523;28;20052;-83
2023/12/02 14:01:31;;;;;;;27.75;11.98;;;;;;;;;;5066298;28;20078;-83
2023/12/02 14:04:11;;;;;;;32.47;13.55;;;;;;;;;;5067857;28;20028;-83
2023/12/02 14:07:14;;;;;;;28.73;12.20;;;;;;;;;;5067720;28;20039;-80
2023/12/02 14:09:40;;;;;;;27.40;12.20;;;;;;;;;;5064495;28;20028;-84
2023/12/02 14:12:33;;;;;;;30.13;12.95;;;;;;;;;;5067448;28;20486;-83
2023/12/02 14:15:16;;;;;;;34.55;14.35;;;;;;;;;;5064038;28;20032;-84
2023/12/02 14:18:24;;;;;;;28.38;13.00;;;;;;;;;;5069355;28;20039;-83
2023/12/02 14:21:12;;;;;;;33.03;13.45;;;;;;;;;;5069681;28;20021;-83
2023/12/02 14:23:37;;;;;;;28.67;13.07;;;;;;;;;;5071906;28;20012;-83
2023/12/02 14:26:22;;;;;;;34.33;14.63;;;;;;;;;;5073130;28;20074;-83
2023/12/02 14:29:03;;;;;;;26.58;12.25;;;;;;;;;;5068663;28;20040;-84
2023/12/02 14:31:56;;;;;;;30.05;13.35;;;;;;;;;;5064444;28;20082;-84
2023/12/02 14:35:04;;;;;;;29.98;12.35;;;;;;;;;;5066106;28;20405;-84